sensor_id;sensor_type;location;lat;lon;timestamp;P1;durP1;ratioP1;P2;durP2;ratioP2
27201;SDS011;14717;46.924;15.474;2024-02-28T00:00:13;10.40;;;6.95;;
27201;SDS011;14717;46.924;15.474;2024-02-28T00:02:39;9.48;;;6.57;;
27201;SDS011;14717;46.924;15.474;2024-02-28T00:05:04;11.32;;;6.97;;
27201;SDS011;14717;46.924;15.474;2024-02-28T00:07:30;10.05;;;6.57;;
27201;SDS011;14717;46.924;15.474;2024-02-28T00:09:55;12.93;;;7.75;;
27201;SDS011;14717;46.924;15.474;2024-02-28T00:12:23;15.95;;;7.30;;
27201;SDS011;14717;46.924;15.474;2024-02-28T00:14:50;11.02;;;6.93;;
27201;SDS011;14717;46.924;15.474;2024-02-28T00:17:16;10.73;;;6.97;;
27201;SDS011;14717;46.924;15.474;2024-02-28T00:19:41;9.02;;;6.80;;
27201;SDS011;14717;46.924;15.474;2024-02-28T00:22:07;10.98;;;6.43;;
27201;SDS011;14717;46.924;15.474;2024-02-28T00:24:33;12.52;;;6.78;;
27201;SDS011;14717;46.924;15.474;2024-02-28T00:26:59;11.07;;;7.13;;
27201;SDS011;14717;46.924;15.474;2024-02-28T00:29:24;11.98;;;6.32;;
27201;SDS011;14717;46.924;15.474;2024-02-28T00:31:49;13.88;;;6.50;;
27201;SDS011;14717;46.924;15.474;2024-02-28T00:34:15;11.57;;;6.88;;
27201;SDS011;14717;46.924;15.474;2024-02-28T00:36:40;9.70;;;6.25;;
27201;SDS011;14717;46.924;15.474;2024-02-28T00:39:06;11.45;;;6.50;;
27201;SDS011;14717;46.924;15.474;2024-02-28T00:41:32;9.02;;;6.50;;
27201;SDS011;14717;46.924;15.474;2024-02-28T00:43:57;13.13;;;6.22;;
27201;SDS011;14717;46.924;15.474;2024-02-28T00:46:22;7.05;;;5.85;;
27201;SDS011;14717;46.924;15.474;2024-02-28T00:48:48;11.43;;;6.85;;
27201;SDS011;14717;46.924;15.474;2024-02-28T00:51:13;9.90;;;6.30;;
27201;SDS011;14717;46.924;15.474;2024-02-28T00:53:38;9.48;;;5.88;;
27201;SDS011;14717;46.924;15.474;2024-02-28T00:56:04;13.82;;;7.13;;
27201;SDS011;14717;46.924;15.474;2024-02-28T00:58:31;12.20;;;7.20;;
27201;SDS011;14717;46.924;15.474;2024-02-28T01:00:56;10.95;;;6.88;;
27201;SDS011;14717;46.924;15.474;2024-02-28T01:03:22;9.27;;;5.82;;
27201;SDS011;14717;46.924;15.474;2024-02-28T01:05:48;9.38;;;5.97;;
27201;SDS011;14717;46.924;15.474;2024-02-28T01:08:14;8.55;;;5.90;;
27201;SDS011;14717;46.924;15.474;2024-02-28T01:10:42;11.48;;;6.30;;
27201;SDS011;14717;46.924;15.474;2024-02-28T01:13:07;9.60;;;6.20;;
27201;SDS011;14717;46.924;15.474;2024-02-28T01:15:33;9.70;;;5.78;;
27201;SDS011;14717;46.924;15.474;2024-02-28T01:17:58;10.32;;;6.32;;
27201;SDS011;14717;46.924;15.474;2024-02-28T01:20:23;8.73;;;5.97;;
27201;SDS011;14717;46.924;15.474;2024-02-28T01:22:49;12.55;;;6.35;;
27201;SDS011;14717;46.924;15.474;2024-02-28T01:25:14;11.93;;;5.95;;
27201;SDS011;14717;46.924;15.474;2024-02-28T01:27:39;12.50;;;6.18;;
27201;SDS011;14717;46.924;15.474;2024-02-28T01:30:05;34.78;;;7.40;;
27201;SDS011;14717;46.924;15.474;2024-02-28T01:32:31;8.88;;;5.75;;
27201;SDS011;14717;46.924;15.474;2024-02-28T01:34:57;8.13;;;5.50;;
27201;SDS011;14717;46.924;15.474;2024-02-28T01:37:22;7.45;;;5.80;;
27201;SDS011;14717;46.924;15.474;2024-02-28T01:39:47;10.93;;;5.70;;
27201;SDS011;14717;46.924;15.474;2024-02-28T01:42:15;9.13;;;5.65;;
27201;SDS011;14717;46.924;15.474;2024-02-28T01:44:43;9.05;;;5.45;;
27201;SDS011;14717;46.924;15.474;2024-02-28T01:47:11;11.30;;;6.40;;
27201;SDS011;14717;46.924;15.474;2024-02-28T01:49:36;13.32;;;5.88;;
27201;SDS011;14717;46.924;15.474;2024-02-28T01:54:29;7.57;;;5.70;;
27201;SDS011;14717;46.924;15.474;2024-02-28T01:56:55;9.98;;;5.68;;
27201;SDS011;14717;46.924;15.474;2024-02-28T01:59:21;9.27;;;5.50;;
27201;SDS011;14717;46.924;15.474;2024-02-28T02:01:49;8.70;;;5.20;;
27201;SDS011;14717;46.924;15.474;2024-02-28T02:04:15;8.35;;;5.57;;
27201;SDS011;14717;46.924;15.474;2024-02-28T02:06:42;7.45;;;5.25;;
27201;SDS011;14717;46.924;15.474;2024-02-28T02:09:10;14.93;;;6.10;;
27201;SDS011;14717;46.924;15.474;2024-02-28T02:11:35;8.43;;;5.97;;
27201;SDS011;14717;46.924;15.474;2024-02-28T02:14:01;76.30;;;10.18;;
27201;SDS011;14717;46.924;15.474;2024-02-28T02:16:26;14.50;;;6.97;;
27201;SDS011;14717;46.924;15.474;2024-02-28T02:18:52;35.53;;;7.78;;
27201;SDS011;14717;46.924;15.474;2024-02-28T02:21:17;45.75;;;7.65;;
27201;SDS011;14717;46.924;15.474;2024-02-28T02:23:45;11.98;;;6.18;;
27201;SDS011;14717;46.924;15.474;2024-02-28T02:26:10;15.68;;;7.05;;
27201;SDS011;14717;46.924;15.474;2024-02-28T02:28:35;11.45;;;6.22;;
27201;SDS011;14717;46.924;15.474;2024-02-28T02:31:01;10.88;;;6.70;;
27201;SDS011;14717;46.924;15.474;2024-02-28T02:33:26;11.50;;;7.07;;
27201;SDS011;14717;46.924;15.474;2024-02-28T02:35:52;12.20;;;7.53;;
27201;SDS011;14717;46.924;15.474;2024-02-28T02:38:18;12.57;;;6.55;;
27201;SDS011;14717;46.924;15.474;2024-02-28T02:40:44;13.88;;;6.60;;
27201;SDS011;14717;46.924;15.474;2024-02-28T02:43:13;13.13;;;6.63;;
27201;SDS011;14717;46.924;15.474;2024-02-28T02:45:39;95.22;;;14.90;;
27201;SDS011;14717;46.924;15.474;2024-02-28T02:48:04;64.97;;;10.63;;
27201;SDS011;14717;46.924;15.474;2024-02-28T02:50:30;86.90;;;12.27;;
27201;SDS011;14717;46.924;15.474;2024-02-28T02:52:55;62.55;;;8.95;;
27201;SDS011;14717;46.924;15.474;2024-02-28T02:55:21;16.30;;;6.47;;
27201;SDS011;14717;46.924;15.474;2024-02-28T02:57:46;29.02;;;7.05;;
27201;SDS011;14717;46.924;15.474;2024-02-28T03:00:11;47.78;;;8.85;;
27201;SDS011;14717;46.924;15.474;2024-02-28T03:02:37;25.42;;;6.45;;
27201;SDS011;14717;46.924;15.474;2024-02-28T03:05:04;8.90;;;6.05;;
27201;SDS011;14717;46.924;15.474;2024-02-28T03:07:30;13.77;;;6.20;;
27201;SDS011;14717;46.924;15.474;2024-02-28T03:09:55;10.75;;;6.45;;
27201;SDS011;14717;46.924;15.474;2024-02-28T03:12:21;12.38;;;6.70;;
27201;SDS011;14717;46.924;15.474;2024-02-28T03:14:47;11.85;;;6.60;;
27201;SDS011;14717;46.924;15.474;2024-02-28T03:19:40;11.52;;;6.68;;
27201;SDS011;14717;46.924;15.474;2024-02-28T03:22:06;22.35;;;6.78;;
27201;SDS011;14717;46.924;15.474;2024-02-28T03:24:31;17.42;;;6.25;;
27201;SDS011;14717;46.924;15.474;2024-02-28T03:26:56;12.02;;;6.38;;
27201;SDS011;14717;46.924;15.474;2024-02-28T03:29:22;46.88;;;8.23;;
27201;SDS011;14717;46.924;15.474;2024-02-28T03:31:47;30.50;;;7.43;;
27201;SDS011;14717;46.924;15.474;2024-02-28T03:34:13;21.60;;;6.28;;
27201;SDS011;14717;46.924;15.474;2024-02-28T03:36:38;23.50;;;6.75;;
27201;SDS011;14717;46.924;15.474;2024-02-28T03:39:03;9.68;;;6.32;;
27201;SDS011;14717;46.924;15.474;2024-02-28T03:41:29;9.70;;;6.00;;
27201;SDS011;14717;46.924;15.474;2024-02-28T03:43:54;7.85;;;5.30;;
27201;SDS011;14717;46.924;15.474;2024-02-28T03:46:19;11.23;;;6.32;;
27201;SDS011;14717;46.924;15.474;2024-02-28T03:48:46;9.30;;;5.90;;
27201;SDS011;14717;46.924;15.474;2024-02-28T03:51:11;20.40;;;6.45;;
27201;SDS011;14717;46.924;15.474;2024-02-28T03:53:37;30.40;;;7.60;;
27201;SDS011;14717;46.924;15.474;2024-02-28T03:56:02;9.05;;;6.07;;
27201;SDS011;14717;46.924;15.474;2024-02-28T03:58:28;8.52;;;5.30;;
27201;SDS011;14717;46.924;15.474;2024-02-28T04:00:53;8.77;;;5.68;;
27201;SDS011;14717;46.924;15.474;2024-02-28T04:03:19;8.63;;;5.13;;
27201;SDS011;14717;46.924;15.474;2024-02-28T04:05:44;9.65;;;6.20;;
27201;SDS011;14717;46.924;15.474;2024-02-28T04:08:10;10.68;;;6.15;;
27201;SDS011;14717;46.924;15.474;2024-02-28T04:10:35;7.97;;;5.50;;
27201;SDS011;14717;46.924;15.474;2024-02-28T04:13:01;9.00;;;5.93;;
27201;SDS011;14717;46.924;15.474;2024-02-28T04:15:26;9.32;;;5.97;;
27201;SDS011;14717;46.924;15.474;2024-02-28T04:17:52;18.65;;;6.43;;
27201;SDS011;14717;46.924;15.474;2024-02-28T04:20:17;18.15;;;6.40;;
27201;SDS011;14717;46.924;15.474;2024-02-28T04:22:43;11.70;;;5.88;;
27201;SDS011;14717;46.924;15.474;2024-02-28T04:25:08;13.88;;;5.80;;
27201;SDS011;14717;46.924;15.474;2024-02-28T04:27:38;9.93;;;5.55;;
27201;SDS011;14717;46.924;15.474;2024-02-28T04:30:04;8.30;;;5.80;;
27201;SDS011;14717;46.924;15.474;2024-02-28T04:32:30;8.70;;;5.50;;
27201;SDS011;14717;46.924;15.474;2024-02-28T04:34:55;11.65;;;6.13;;
27201;SDS011;14717;46.924;15.474;2024-02-28T04:37:21;13.07;;;5.50;;
27201;SDS011;14717;46.924;15.474;2024-02-28T04:39:46;35.80;;;7.50;;
27201;SDS011;14717;46.924;15.474;2024-02-28T04:42:12;39.50;;;8.07;;
27201;SDS011;14717;46.924;15.474;2024-02-28T04:44:38;8.07;;;5.57;;
27201;SDS011;14717;46.924;15.474;2024-02-28T04:47:04;9.40;;;5.82;;
27201;SDS011;14717;46.924;15.474;2024-02-28T04:49:29;8.95;;;6.13;;
27201;SDS011;14717;46.924;15.474;2024-02-28T04:51:55;27.80;;;7.25;;
27201;SDS011;14717;46.924;15.474;2024-02-28T04:54:20;51.75;;;8.43;;
27201;SDS011;14717;46.924;15.474;2024-02-28T04:56:46;12.40;;;6.13;;
27201;SDS011;14717;46.924;15.474;2024-02-28T04:59:11;21.88;;;6.45;;
27201;SDS011;14717;46.924;15.474;2024-02-28T05:01:37;34.45;;;7.95;;
27201;SDS011;14717;46.924;15.474;2024-02-28T05:04:07;9.82;;;6.40;;
27201;SDS011;14717;46.924;15.474;2024-02-28T05:06:32;12.48;;;5.88;;
27201;SDS011;14717;46.924;15.474;2024-02-28T05:08:58;10.10;;;6.32;;
27201;SDS011;14717;46.924;15.474;2024-02-28T05:11:24;9.40;;;6.45;;
27201;SDS011;14717;46.924;15.474;2024-02-28T05:13:49;9.07;;;5.88;;
27201;SDS011;14717;46.924;15.474;2024-02-28T05:16:15;9.93;;;5.72;;
27201;SDS011;14717;46.924;15.474;2024-02-28T05:21:06;9.73;;;6.18;;
27201;SDS011;14717;46.924;15.474;2024-02-28T05:23:32;7.97;;;5.75;;
27201;SDS011;14717;46.924;15.474;2024-02-28T05:25:58;13.63;;;6.20;;
27201;SDS011;14717;46.924;15.474;2024-02-28T05:28:28;26.15;;;6.80;;
27201;SDS011;14717;46.924;15.474;2024-02-28T05:30:54;9.20;;;6.65;;
27201;SDS011;14717;46.924;15.474;2024-02-28T05:33:19;11.27;;;7.20;;
27201;SDS011;14717;46.924;15.474;2024-02-28T05:35:45;12.05;;;7.25;;
27201;SDS011;14717;46.924;15.474;2024-02-28T05:38:10;13.23;;;8.20;;
27201;SDS011;14717;46.924;15.474;2024-02-28T05:40:36;20.63;;;9.07;;
27201;SDS011;14717;46.924;15.474;2024-02-28T05:43:01;13.75;;;7.70;;
27201;SDS011;14717;46.924;15.474;2024-02-28T05:45:27;12.32;;;7.47;;
27201;SDS011;14717;46.924;15.474;2024-02-28T05:47:52;11.52;;;7.43;;
27201;SDS011;14717;46.924;15.474;2024-02-28T05:50:17;14.00;;;7.38;;
27201;SDS011;14717;46.924;15.474;2024-02-28T05:52:43;47.95;;;9.15;;
27201;SDS011;14717;46.924;15.474;2024-02-28T05:55:08;14.25;;;8.48;;
27201;SDS011;14717;46.924;15.474;2024-02-28T05:57:34;14.48;;;8.63;;
27201;SDS011;14717;46.924;15.474;2024-02-28T05:59:59;13.00;;;8.15;;
27201;SDS011;14717;46.924;15.474;2024-02-28T06:02:24;21.88;;;8.48;;
27201;SDS011;14717;46.924;15.474;2024-02-28T06:04:50;21.23;;;8.52;;
27201;SDS011;14717;46.924;15.474;2024-02-28T06:07:15;16.35;;;7.78;;
27201;SDS011;14717;46.924;15.474;2024-02-28T06:09:41;26.10;;;8.88;;
27201;SDS011;14717;46.924;15.474;2024-02-28T06:12:06;42.95;;;10.57;;
27201;SDS011;14717;46.924;15.474;2024-02-28T06:14:31;67.13;;;12.43;;
27201;SDS011;14717;46.924;15.474;2024-02-28T06:16:57;77.85;;;13.90;;
27201;SDS011;14717;46.924;15.474;2024-02-28T06:19:22;56.00;;;10.98;;
27201;SDS011;14717;46.924;15.474;2024-02-28T06:21:48;90.32;;;18.83;;
27201;SDS011;14717;46.924;15.474;2024-02-28T06:24:13;90.78;;;20.05;;
27201;SDS011;14717;46.924;15.474;2024-02-28T06:26:38;41.60;;;10.68;;
27201;SDS011;14717;46.924;15.474;2024-02-28T06:29:04;126.75;;;18.30;;
27201;SDS011;14717;46.924;15.474;2024-02-28T06:31:31;54.35;;;14.57;;
27201;SDS011;14717;46.924;15.474;2024-02-28T06:33:57;30.08;;;15.25;;
27201;SDS011;14717;46.924;15.474;2024-02-28T06:36:22;46.45;;;12.38;;
27201;SDS011;14717;46.924;15.474;2024-02-28T06:38:48;14.48;;;8.48;;
27201;SDS011;14717;46.924;15.474;2024-02-28T06:41:13;15.82;;;7.55;;
27201;SDS011;14717;46.924;15.474;2024-02-28T06:43:38;25.40;;;10.73;;
27201;SDS011;14717;46.924;15.474;2024-02-28T06:46:04;36.92;;;11.27;;
27201;SDS011;14717;46.924;15.474;2024-02-28T06:48:30;14.45;;;8.88;;
27201;SDS011;14717;46.924;15.474;2024-02-28T06:50:55;29.40;;;9.10;;
27201;SDS011;14717;46.924;15.474;2024-02-28T06:53:22;23.25;;;8.20;;
27201;SDS011;14717;46.924;15.474;2024-02-28T06:55:48;20.92;;;9.38;;
27201;SDS011;14717;46.924;15.474;2024-02-28T06:58:14;25.67;;;9.02;;
27201;SDS011;14717;46.924;15.474;2024-02-28T07:00:39;25.98;;;9.98;;
27201;SDS011;14717;46.924;15.474;2024-02-28T07:03:05;47.17;;;12.27;;
27201;SDS011;14717;46.924;15.474;2024-02-28T07:05:30;61.38;;;11.93;;
27201;SDS011;14717;46.924;15.474;2024-02-28T07:07:55;38.20;;;10.85;;
27201;SDS011;14717;46.924;15.474;2024-02-28T07:10:21;52.45;;;12.13;;
27201;SDS011;14717;46.924;15.474;2024-02-28T07:12:46;48.47;;;11.85;;
27201;SDS011;14717;46.924;15.474;2024-02-28T07:15:12;33.50;;;10.45;;
27201;SDS011;14717;46.924;15.474;2024-02-28T07:17:37;23.25;;;8.82;;
27201;SDS011;14717;46.924;15.474;2024-02-28T07:20:02;20.25;;;9.20;;
27201;SDS011;14717;46.924;15.474;2024-02-28T07:22:28;14.80;;;8.60;;
27201;SDS011;14717;46.924;15.474;2024-02-28T07:24:53;45.03;;;9.38;;
27201;SDS011;14717;46.924;15.474;2024-02-28T07:27:19;43.33;;;8.15;;
27201;SDS011;14717;46.924;15.474;2024-02-28T07:29:47;53.17;;;11.70;;
27201;SDS011;14717;46.924;15.474;2024-02-28T07:32:12;16.17;;;6.63;;
27201;SDS011;14717;46.924;15.474;2024-02-28T07:34:38;28.58;;;7.18;;
27201;SDS011;14717;46.924;15.474;2024-02-28T07:37:04;47.38;;;10.32;;
27201;SDS011;14717;46.924;15.474;2024-02-28T07:39:29;29.33;;;7.03;;
27201;SDS011;14717;46.924;15.474;2024-02-28T07:41:55;7.50;;;5.70;;
27201;SDS011;14717;46.924;15.474;2024-02-28T07:44:20;8.90;;;6.28;;
27201;SDS011;14717;46.924;15.474;2024-02-28T07:46:46;52.72;;;8.80;;
27201;SDS011;14717;46.924;15.474;2024-02-28T07:49:11;40.35;;;7.95;;
27201;SDS011;14717;46.924;15.474;2024-02-28T07:51:38;79.78;;;12.00;;
27201;SDS011;14717;46.924;15.474;2024-02-28T07:54:05;43.33;;;9.60;;
27201;SDS011;14717;46.924;15.474;2024-02-28T07:56:31;33.95;;;8.25;;
27201;SDS011;14717;46.924;15.474;2024-02-28T07:58:57;54.25;;;8.50;;
27201;SDS011;14717;46.924;15.474;2024-02-28T08:01:22;21.15;;;7.15;;
27201;SDS011;14717;46.924;15.474;2024-02-28T08:03:48;11.68;;;6.95;;
27201;SDS011;14717;46.924;15.474;2024-02-28T08:06:13;104.10;;;14.50;;
27201;SDS011;14717;46.924;15.474;2024-02-28T08:08:38;59.75;;;10.38;;
27201;SDS011;14717;46.924;15.474;2024-02-28T08:11:04;36.08;;;8.63;;
27201;SDS011;14717;46.924;15.474;2024-02-28T08:13:29;40.28;;;9.52;;
27201;SDS011;14717;46.924;15.474;2024-02-28T08:15:55;13.80;;;7.47;;
27201;SDS011;14717;46.924;15.474;2024-02-28T08:18:20;17.02;;;7.90;;
27201;SDS011;14717;46.924;15.474;2024-02-28T08:20:46;53.95;;;9.63;;
27201;SDS011;14717;46.924;15.474;2024-02-28T08:23:11;23.02;;;8.07;;
27201;SDS011;14717;46.924;15.474;2024-02-28T08:25:36;13.43;;;7.57;;
27201;SDS011;14717;46.924;15.474;2024-02-28T08:28:02;37.03;;;9.05;;
27201;SDS011;14717;46.924;15.474;2024-02-28T08:30:28;12.35;;;7.63;;
27201;SDS011;14717;46.924;15.474;2024-02-28T08:32:54;12.77;;;7.40;;
27201;SDS011;14717;46.924;15.474;2024-02-28T08:35:19;10.70;;;7.00;;
27201;SDS011;14717;46.924;15.474;2024-02-28T08:37:44;10.55;;;7.20;;
27201;SDS011;14717;46.924;15.474;2024-02-28T08:40:10;11.43;;;7.03;;
27201;SDS011;14717;46.924;15.474;2024-02-28T08:42:36;25.30;;;7.07;;
27201;SDS011;14717;46.924;15.474;2024-02-28T08:45:01;16.75;;;8.73;;
27201;SDS011;14717;46.924;15.474;2024-02-28T08:47:28;32.60;;;8.68;;
27201;SDS011;14717;46.924;15.474;2024-02-28T08:49:54;13.57;;;6.40;;
27201;SDS011;14717;46.924;15.474;2024-02-28T08:52:20;9.48;;;6.28;;
27201;SDS011;14717;46.924;15.474;2024-02-28T08:54:46;12.23;;;7.28;;
27201;SDS011;14717;46.924;15.474;2024-02-28T08:57:12;21.13;;;7.43;;
27201;SDS011;14717;46.924;15.474;2024-02-28T08:59:38;10.25;;;7.10;;
27201;SDS011;14717;46.924;15.474;2024-02-28T09:02:05;11.57;;;7.07;;
27201;SDS011;14717;46.924;15.474;2024-02-28T09:04:30;13.18;;;7.40;;
27201;SDS011;14717;46.924;15.474;2024-02-28T09:06:56;10.30;;;7.00;;
27201;SDS011;14717;46.924;15.474;2024-02-28T09:09:21;10.88;;;6.85;;
27201;SDS011;14717;46.924;15.474;2024-02-28T09:11:47;12.23;;;7.03;;
27201;SDS011;14717;46.924;15.474;2024-02-28T09:14:12;8.70;;;6.32;;
27201;SDS011;14717;46.924;15.474;2024-02-28T09:16:37;11.02;;;7.07;;
27201;SDS011;14717;46.924;15.474;2024-02-28T09:19:03;9.35;;;6.90;;
27201;SDS011;14717;46.924;15.474;2024-02-28T09:21:29;11.40;;;7.28;;
27201;SDS011;14717;46.924;15.474;2024-02-28T09:23:54;9.13;;;6.45;;
27201;SDS011;14717;46.924;15.474;2024-02-28T09:26:20;12.27;;;6.28;;
27201;SDS011;14717;46.924;15.474;2024-02-28T09:28:45;10.95;;;7.00;;
27201;SDS011;14717;46.924;15.474;2024-02-28T09:31:10;8.27;;;5.85;;
27201;SDS011;14717;46.924;15.474;2024-02-28T09:33:36;11.23;;;5.75;;
27201;SDS011;14717;46.924;15.474;2024-02-28T09:36:02;8.60;;;5.60;;
27201;SDS011;14717;46.924;15.474;2024-02-28T09:38:28;10.43;;;6.60;;
27201;SDS011;14717;46.924;15.474;2024-02-28T09:40:54;8.95;;;5.95;;
27201;SDS011;14717;46.924;15.474;2024-02-28T09:43:24;8.85;;;5.82;;
27201;SDS011;14717;46.924;15.474;2024-02-28T09:45:59;10.32;;;6.28;;
27201;SDS011;14717;46.924;15.474;2024-02-28T09:48:28;9.02;;;6.47;;
27201;SDS011;14717;46.924;15.474;2024-02-28T09:50:54;9.68;;;6.25;;
27201;SDS011;14717;46.924;15.474;2024-02-28T09:55:46;8.32;;;5.57;;
27201;SDS011;14717;46.924;15.474;2024-02-28T09:58:13;9.13;;;5.80;;
27201;SDS011;14717;46.924;15.474;2024-02-28T10:00:40;11.68;;;5.80;;
27201;SDS011;14717;46.924;15.474;2024-02-28T10:03:08;8.63;;;5.30;;
27201;SDS011;14717;46.924;15.474;2024-02-28T10:05:38;9.00;;;5.18;;
27201;SDS011;14717;46.924;15.474;2024-02-28T10:08:04;7.30;;;4.47;;
27201;SDS011;14717;46.924;15.474;2024-02-28T10:10:30;7.88;;;4.20;;
27201;SDS011;14717;46.924;15.474;2024-02-28T10:12:56;7.13;;;4.00;;
27201;SDS011;14717;46.924;15.474;2024-02-28T10:15:22;6.30;;;4.50;;
27201;SDS011;14717;46.924;15.474;2024-02-28T10:17:47;6.72;;;4.10;;
27201;SDS011;14717;46.924;15.474;2024-02-28T10:22:39;5.95;;;3.90;;
27201;SDS011;14717;46.924;15.474;2024-02-28T10:25:04;6.97;;;3.65;;
27201;SDS011;14717;46.924;15.474;2024-02-28T10:27:34;6.25;;;4.07;;
27201;SDS011;14717;46.924;15.474;2024-02-28T10:30:00;5.88;;;3.83;;
27201;SDS011;14717;46.924;15.474;2024-02-28T10:32:30;5.93;;;3.47;;
27201;SDS011;14717;46.924;15.474;2024-02-28T10:35:00;6.72;;;3.50;;
27201;SDS011;14717;46.924;15.474;2024-02-28T10:37:26;5.53;;;3.97;;
27201;SDS011;14717;46.924;15.474;2024-02-28T10:39:56;5.25;;;3.70;;
27201;SDS011;14717;46.924;15.474;2024-02-28T10:42:22;5.68;;;3.70;;
27201;SDS011;14717;46.924;15.474;2024-02-28T10:44:51;7.13;;;4.22;;
27201;SDS011;14717;46.924;15.474;2024-02-28T10:47:18;6.68;;;4.35;;
27201;SDS011;14717;46.924;15.474;2024-02-28T10:49:44;7.85;;;4.60;;
27201;SDS011;14717;46.924;15.474;2024-02-28T10:52:10;7.30;;;4.50;;
27201;SDS011;14717;46.924;15.474;2024-02-28T10:54:38;7.28;;;5.03;;
27201;SDS011;14717;46.924;15.474;2024-02-28T10:57:07;10.90;;;5.00;;
27201;SDS011;14717;46.924;15.474;2024-02-28T10:59:33;6.65;;;4.47;;
27201;SDS011;14717;46.924;15.474;2024-02-28T11:02:02;7.07;;;4.57;;
27201;SDS011;14717;46.924;15.474;2024-02-28T11:04:28;7.40;;;4.97;;
27201;SDS011;14717;46.924;15.474;2024-02-28T11:06:55;5.80;;;4.43;;
27201;SDS011;14717;46.924;15.474;2024-02-28T11:09:21;7.68;;;4.32;;
27201;SDS011;14717;46.924;15.474;2024-02-28T11:11:50;10.05;;;4.35;;
27201;SDS011;14717;46.924;15.474;2024-02-28T11:14:16;7.75;;;4.35;;
27201;SDS011;14717;46.924;15.474;2024-02-28T11:16:42;7.00;;;4.13;;
27201;SDS011;14717;46.924;15.474;2024-02-28T11:19:18;7.35;;;4.05;;
27201;SDS011;14717;46.924;15.474;2024-02-28T11:21:56;5.32;;;4.20;;
27201;SDS011;14717;46.924;15.474;2024-02-28T11:24:24;7.07;;;4.00;;
27201;SDS011;14717;46.924;15.474;2024-02-28T11:26:53;7.63;;;3.90;;
27201;SDS011;14717;46.924;15.474;2024-02-28T11:29:22;9.18;;;3.58;;
27201;SDS011;14717;46.924;15.474;2024-02-28T11:31:49;6.65;;;3.85;;
27201;SDS011;14717;46.924;15.474;2024-02-28T11:34:15;7.10;;;3.90;;
27201;SDS011;14717;46.924;15.474;2024-02-28T11:36:40;5.55;;;3.70;;
27201;SDS011;14717;46.924;15.474;2024-02-28T11:39:06;5.47;;;3.13;;
27201;SDS011;14717;46.924;15.474;2024-02-28T11:41:31;6.70;;;3.42;;
27201;SDS011;14717;46.924;15.474;2024-02-28T11:43:57;9.68;;;3.53;;
27201;SDS011;14717;46.924;15.474;2024-02-28T11:46:23;6.78;;;3.63;;
27201;SDS011;14717;46.924;15.474;2024-02-28T11:48:49;5.38;;;3.10;;
27201;SDS011;14717;46.924;15.474;2024-02-28T11:51:14;6.07;;;3.75;;
27201;SDS011;14717;46.924;15.474;2024-02-28T11:53:40;7.75;;;3.63;;
27201;SDS011;14717;46.924;15.474;2024-02-28T11:56:05;6.97;;;3.60;;
27201;SDS011;14717;46.924;15.474;2024-02-28T11:58:33;11.05;;;4.05;;
27201;SDS011;14717;46.924;15.474;2024-02-28T12:00:58;5.18;;;3.15;;
27201;SDS011;14717;46.924;15.474;2024-02-28T12:03:24;6.22;;;3.88;;
27201;SDS011;14717;46.924;15.474;2024-02-28T12:05:50;7.97;;;3.78;;
27201;SDS011;14717;46.924;15.474;2024-02-28T12:08:17;9.98;;;3.42;;
27201;SDS011;14717;46.924;15.474;2024-02-28T12:10:44;7.05;;;3.17;;
27201;SDS011;14717;46.924;15.474;2024-02-28T12:15:36;8.68;;;3.53;;
27201;SDS011;14717;46.924;15.474;2024-02-28T12:18:07;7.10;;;3.22;;
27201;SDS011;14717;46.924;15.474;2024-02-28T12:20:34;7.97;;;3.20;;
27201;SDS011;14717;46.924;15.474;2024-02-28T12:22:59;7.57;;;3.08;;
27201;SDS011;14717;46.924;15.474;2024-02-28T12:25:25;5.38;;;3.50;;
27201;SDS011;14717;46.924;15.474;2024-02-28T12:27:50;7.03;;;3.20;;
27201;SDS011;14717;46.924;15.474;2024-02-28T12:30:15;6.50;;;3.40;;
27201;SDS011;14717;46.924;15.474;2024-02-28T12:32:41;7.05;;;3.30;;
27201;SDS011;14717;46.924;15.474;2024-02-28T12:37:32;7.97;;;3.30;;
27201;SDS011;14717;46.924;15.474;2024-02-28T12:42:22;5.30;;;2.60;;
27201;SDS011;14717;46.924;15.474;2024-02-28T12:47:13;5.13;;;2.67;;
27201;SDS011;14717;46.924;15.474;2024-02-28T12:49:38;5.53;;;2.40;;
27201;SDS011;14717;46.924;15.474;2024-02-28T12:52:04;5.45;;;2.65;;
27201;SDS011;14717;46.924;15.474;2024-02-28T12:56:55;5.45;;;2.70;;
27201;SDS011;14717;46.924;15.474;2024-02-28T13:01:46;8.00;;;2.83;;
27201;SDS011;14717;46.924;15.474;2024-02-28T13:04:12;8.65;;;2.90;;
27201;SDS011;14717;46.924;15.474;2024-02-28T13:09:04;4.88;;;2.40;;
27201;SDS011;14717;46.924;15.474;2024-02-28T13:11:31;5.03;;;2.65;;
27201;SDS011;14717;46.924;15.474;2024-02-28T13:16:23;4.90;;;2.67;;
27201;SDS011;14717;46.924;15.474;2024-02-28T13:21:13;10.23;;;3.10;;
27201;SDS011;14717;46.924;15.474;2024-02-28T13:26:04;5.67;;;2.30;;
27201;SDS011;14717;46.924;15.474;2024-02-28T13:28:30;4.18;;;2.03;;
27201;SDS011;14717;46.924;15.474;2024-02-28T13:33:25;8.70;;;2.70;;
27201;SDS011;14717;46.924;15.474;2024-02-28T13:35:52;5.63;;;2.08;;
27201;SDS011;14717;46.924;15.474;2024-02-28T13:38:18;9.02;;;2.30;;
27201;SDS011;14717;46.924;15.474;2024-02-28T13:40:44;4.68;;;2.38;;
27201;SDS011;14717;46.924;15.474;2024-02-28T13:43:10;4.10;;;1.95;;
27201;SDS011;14717;46.924;15.474;2024-02-28T13:48:02;5.13;;;2.10;;
27201;SDS011;14717;46.924;15.474;2024-02-28T13:52:57;7.32;;;1.90;;
27201;SDS011;14717;46.924;15.474;2024-02-28T13:55:22;5.63;;;2.15;;
27201;SDS011;14717;46.924;15.474;2024-02-28T14:00:13;4.87;;;2.07;;
27201;SDS011;14717;46.924;15.474;2024-02-28T14:05:05;7.15;;;2.05;;
27201;SDS011;14717;46.924;15.474;2024-02-28T14:07:32;8.27;;;2.10;;
27201;SDS011;14717;46.924;15.474;2024-02-28T14:12:23;7.15;;;2.40;;
27201;SDS011;14717;46.924;15.474;2024-02-28T14:17:14;6.40;;;2.70;;
27201;SDS011;14717;46.924;15.474;2024-02-28T14:22:05;4.80;;;2.50;;
27201;SDS011;14717;46.924;15.474;2024-02-28T14:24:32;7.65;;;2.50;;
27201;SDS011;14717;46.924;15.474;2024-02-28T14:29:23;9.30;;;2.43;;
27201;SDS011;14717;46.924;15.474;2024-02-28T14:34:13;5.07;;;2.33;;
27201;SDS011;14717;46.924;15.474;2024-02-28T14:39:04;6.57;;;2.53;;
27201;SDS011;14717;46.924;15.474;2024-02-28T14:43:56;7.97;;;2.30;;
27201;SDS011;14717;46.924;15.474;2024-02-28T14:48:47;5.95;;;2.00;;
27201;SDS011;14717;46.924;15.474;2024-02-28T14:51:19;6.00;;;2.33;;
27201;SDS011;14717;46.924;15.474;2024-02-28T14:53:45;5.82;;;2.03;;
27201;SDS011;14717;46.924;15.474;2024-02-28T14:56:12;4.85;;;1.98;;
27201;SDS011;14717;46.924;15.474;2024-02-28T14:58:38;7.82;;;2.38;;
27201;SDS011;14717;46.924;15.474;2024-02-28T15:03:29;6.10;;;2.38;;
27201;SDS011;14717;46.924;15.474;2024-02-28T15:08:20;4.90;;;1.83;;
27201;SDS011;14717;46.924;15.474;2024-02-28T15:13:11;4.30;;;1.97;;
27201;SDS011;14717;46.924;15.474;2024-02-28T15:18:02;8.75;;;2.33;;
27201;SDS011;14717;46.924;15.474;2024-02-28T15:20:27;6.18;;;2.92;;
27201;SDS011;14717;46.924;15.474;2024-02-28T15:25:18;6.33;;;2.57;;
27201;SDS011;14717;46.924;15.474;2024-02-28T15:27:44;9.02;;;2.53;;
27201;SDS011;14717;46.924;15.474;2024-02-28T15:32:35;7.18;;;2.40;;
27201;SDS011;14717;46.924;15.474;2024-02-28T15:35:04;5.50;;;2.20;;
27201;SDS011;14717;46.924;15.474;2024-02-28T15:37:31;5.25;;;2.42;;
27201;SDS011;14717;46.924;15.474;2024-02-28T15:42:22;5.17;;;2.20;;